createdAt,value
2023-11-14T00:00:07.947Z,10.38
2023-11-14T00:02:36.556Z,10.77
2023-11-14T00:05:06.043Z,9.60
2023-11-14T00:07:34.618Z,7.73
2023-11-14T00:10:04.623Z,9.77
2023-11-14T00:12:33.703Z,7.80
2023-11-14T00:15:01.988Z,8.05
2023-11-14T00:17:33.584Z,10.05
2023-11-14T00:20:02.136Z,8.10
2023-11-14T00:22:31.495Z,9.35
2023-11-14T00:24:59.809Z,8.02
2023-11-14T00:27:28.908Z,9.77
2023-11-14T00:29:57.787Z,8.93
2023-11-14T00:32:26.841Z,10.37
2023-11-14T00:34:55.483Z,9.85
2023-11-14T00:37:23.706Z,10.38
2023-11-14T00:39:52.452Z,9.88
2023-11-14T00:42:20.490Z,10.98
2023-11-14T00:44:48.558Z,10.20
2023-11-14T00:47:16.886Z,9.60
2023-11-14T00:49:45.371Z,9.32
2023-11-14T00:52:14.187Z,9.85
2023-11-14T00:54:42.340Z,9.30
2023-11-14T00:57:10.585Z,9.83
2023-11-14T00:59:38.657Z,8.48
2023-11-14T01:02:09.460Z,10.27
2023-11-14T01:04:41.346Z,9.98
2023-11-14T01:07:11.697Z,8.30
2023-11-14T01:09:39.998Z,7.97
2023-11-14T01:12:08.787Z,8.45
2023-11-14T01:14:36.935Z,6.00
2023-11-14T01:17:05.274Z,8.77
2023-11-14T01:19:33.532Z,8.65
2023-11-14T01:22:01.661Z,10.00
2023-11-14T01:24:30.472Z,9.68
2023-11-14T01:26:58.571Z,10.40
2023-11-14T01:29:26.679Z,6.97
2023-11-14T01:31:54.932Z,10.35
2023-11-14T01:34:27.204Z,11.27
2023-11-14T01:37:00.147Z,9.60
2023-11-14T01:39:30.860Z,11.27
2023-11-14T01:41:58.929Z,11.05
2023-11-14T01:44:27.645Z,10.13
2023-11-14T01:46:56.276Z,9.97
2023-11-14T01:49:25.097Z,9.95
2023-11-14T01:51:54.801Z,8.13
2023-11-14T01:54:24.161Z,7.85
2023-11-14T01:56:52.795Z,7.88
2023-11-14T01:59:21.667Z,8.23
2023-11-14T02:01:49.988Z,6.90
2023-11-14T02:04:22.297Z,7.80
2023-11-14T02:06:50.392Z,5.90
2023-11-14T02:09:19.189Z,7.07
2023-11-14T02:11:47.937Z,7.73
2023-11-14T02:14:16.924Z,6.93
2023-11-14T02:16:47.145Z,5.28
2023-11-14T02:19:16.159Z,7.75
2023-11-14T02:21:44.704Z,7.63
2023-11-14T02:24:22.975Z,7.73
2023-11-14T02:26:52.165Z,5.13
2023-11-14T02:29:22.408Z,3.90
2023-11-14T02:31:51.288Z,6.32
2023-11-14T02:34:19.798Z,6.32
2023-11-14T02:36:48.389Z,6.63
2023-11-14T02:39:16.531Z,5.63
2023-11-14T02:41:44.877Z,5.18
2023-11-14T02:44:15.081Z,4.00
2023-11-14T02:46:43.974Z,5.18
2023-11-14T02:49:17.954Z,5.93
2023-11-14T02:51:46.788Z,6.82
2023-11-14T02:54:15.116Z,6.15
2023-11-14T02:56:43.580Z,6.22
2023-11-14T02:59:12.582Z,6.85
2023-11-14T03:01:41.002Z,5.83
2023-11-14T03:04:09.841Z,5.25
2023-11-14T03:06:41.046Z,5.63
2023-11-14T03:09:10.265Z,4.03
2023-11-14T03:11:38.433Z,5.85
2023-11-14T03:14:06.744Z,5.70
2023-11-14T03:16:35.442Z,5.38
2023-11-14T03:19:03.775Z,5.90
2023-11-14T03:21:32.475Z,5.63
2023-11-14T03:24:00.742Z,4.05
2023-11-14T03:26:35.163Z,3.97
2023-11-14T03:29:04.494Z,3.08
2023-11-14T03:31:33.196Z,3.15
2023-11-14T03:34:01.305Z,3.72
2023-11-14T03:36:29.826Z,4.90
2023-11-14T03:38:57.906Z,4.17
2023-11-14T03:41:26.072Z,4.30
2023-11-14T03:43:54.348Z,3.30
2023-11-14T03:46:22.436Z,3.75
2023-11-14T03:48:50.565Z,5.22
2023-11-14T03:51:18.591Z,3.87
2023-11-14T03:53:46.881Z,5.40
2023-11-14T03:56:15.377Z,5.00
2023-11-14T03:58:44.760Z,4.68
2023-11-14T04:01:13.269Z,4.25
2023-11-14T04:03:42.093Z,6.33
2023-11-14T04:06:12.421Z,3.08
2023-11-14T04:08:40.450Z,3.08
2023-11-14T04:11:09.327Z,3.75
2023-11-14T04:13:39.728Z,3.22
2023-11-14T04:16:10.414Z,4.83
2023-11-14T04:18:40.340Z,5.60
2023-11-14T04:21:08.595Z,4.30
2023-11-14T04:23:37.176Z,6.15
2023-11-14T04:26:05.405Z,5.03
2023-11-14T04:28:33.444Z,5.23
2023-11-14T04:31:01.702Z,5.13
2023-11-14T04:33:30.079Z,5.03
2023-11-14T04:35:58.422Z,4.18
2023-11-14T04:38:26.508Z,5.65
2023-11-14T04:40:57.295Z,6.93
2023-11-14T04:43:25.697Z,5.43
2023-11-14T04:45:53.770Z,6.78
2023-11-14T04:48:22.217Z,5.28
2023-11-14T04:50:50.540Z,6.70
2023-11-14T04:53:18.654Z,6.27
2023-11-14T04:55:47.425Z,5.63
2023-11-14T04:58:15.504Z,6.30
2023-11-14T05:00:43.592Z,7.72
2023-11-14T05:03:12.067Z,5.63
2023-11-14T05:05:40.456Z,4.20
2023-11-14T05:08:09.080Z,5.38
2023-11-14T05:10:37.700Z,5.35
2023-11-14T05:13:06.493Z,6.28
2023-11-14T05:15:34.589Z,4.00
2023-11-14T05:18:04.610Z,6.50
2023-11-14T05:20:32.736Z,6.57
2023-11-14T05:23:01.441Z,6.15
2023-11-14T05:25:29.893Z,5.97
2023-11-14T05:27:57.940Z,5.35
2023-11-14T05:30:26.484Z,5.77
2023-11-14T05:32:54.678Z,7.22
2023-11-14T05:35:22.810Z,7.30
2023-11-14T05:37:51.028Z,7.13
2023-11-14T05:40:19.745Z,5.38
2023-11-14T05:42:48.169Z,5.80
2023-11-14T05:45:17.995Z,5.00
2023-11-14T05:47:46.848Z,5.15
2023-11-14T05:50:15.416Z,5.18
2023-11-14T05:52:43.947Z,6.45
2023-11-14T05:55:12.443Z,5.50
2023-11-14T05:57:40.910Z,5.65
2023-11-14T06:00:14.981Z,5.07
2023-11-14T06:02:43.979Z,5.10
2023-11-14T06:05:12.305Z,3.85
2023-11-14T06:07:41.286Z,3.83
2023-11-14T06:10:10.108Z,4.30
2023-11-14T06:12:41.306Z,4.70
2023-11-14T06:15:11.227Z,7.55
2023-11-14T06:17:40.023Z,8.65
2023-11-14T06:20:09.923Z,7.10
2023-11-14T06:22:38.889Z,6.72
2023-11-14T06:25:08.952Z,6.00
2023-11-14T06:27:37.463Z,6.05
2023-11-14T06:30:08.075Z,4.28
2023-11-14T06:32:37.307Z,4.83
2023-11-14T06:35:06.046Z,4.25
2023-11-14T06:37:36.854Z,4.65
2023-11-14T06:40:05.594Z,5.00
2023-11-14T06:42:35.134Z,3.67
2023-11-14T06:45:04.002Z,3.97
2023-11-14T06:47:34.263Z,3.95
2023-11-14T06:50:03.039Z,4.90
2023-11-14T06:52:32.114Z,4.25
2023-11-14T06:55:00.305Z,4.43
2023-11-14T06:57:28.573Z,4.23
2023-11-14T06:59:59.395Z,4.70
2023-11-14T07:02:28.776Z,4.95
2023-11-14T07:04:57.208Z,5.10
2023-11-14T07:07:25.744Z,5.53
2023-11-14T07:09:53.973Z,6.17
2023-11-14T07:12:22.874Z,6.78
2023-11-14T07:14:51.133Z,6.40
2023-11-14T07:17:20.469Z,5.30
2023-11-14T07:19:49.057Z,5.82
2023-11-14T07:22:18.508Z,5.50
2023-11-14T07:24:47.498Z,5.55
2023-11-14T07:27:16.901Z,4.95
2023-11-14T07:29:47.292Z,3.65
2023-11-14T07:32:15.563Z,4.03
2023-11-14T07:34:44.328Z,3.73
2023-11-14T07:37:12.997Z,3.97
2023-11-14T07:39:41.434Z,4.55
2023-11-14T07:42:09.740Z,4.97
2023-11-14T07:44:38.616Z,7.72
2023-11-14T07:47:15.700Z,5.07
2023-11-14T07:49:49.949Z,3.95
2023-11-14T07:52:18.059Z,4.05
2023-11-14T07:54:48.274Z,4.22
2023-11-14T07:57:17.545Z,4.20
2023-11-14T07:59:45.934Z,4.83
2023-11-14T08:02:15.318Z,4.20
2023-11-14T08:04:44.192Z,3.83
2023-11-14T08:07:12.292Z,4.20
2023-11-14T08:09:41.022Z,4.05
2023-11-14T08:12:09.958Z,3.67
2023-11-14T08:14:43.007Z,4.07
2023-11-14T08:17:11.313Z,4.57
2023-11-14T08:19:40.801Z,4.40
2023-11-14T08:22:10.416Z,3.90
2023-11-14T08:24:39.943Z,5.73
2023-11-14T08:27:08.253Z,5.47
2023-11-14T08:29:37.884Z,5.90
2023-11-14T08:32:06.998Z,5.43
2023-11-14T08:34:35.210Z,5.20
2023-11-14T08:37:04.480Z,4.40
2023-11-14T08:39:32.659Z,4.95
2023-11-14T08:42:01.216Z,6.07
2023-11-14T08:44:29.722Z,5.88
2023-11-14T08:46:58.471Z,4.93
2023-11-14T08:49:26.697Z,4.10
2023-11-14T08:51:54.918Z,4.70
2023-11-14T08:54:23.929Z,4.63
2023-11-14T08:56:52.393Z,5.03
2023-11-14T08:59:20.644Z,4.95
2023-11-14T09:01:49.457Z,6.90
2023-11-14T09:04:19.401Z,6.82
2023-11-14T09:06:51.327Z,7.20
2023-11-14T09:09:23.024Z,8.10
2023-11-14T09:11:51.994Z,8.35
2023-11-14T09:14:20.112Z,11.13
2023-11-14T09:16:48.957Z,9.63
2023-11-14T09:19:17.127Z,9.52
2023-11-14T09:21:45.273Z,9.38
2023-11-14T09:24:14.208Z,7.65
2023-11-14T09:26:42.643Z,9.13
2023-11-14T09:29:10.936Z,8.00
2023-11-14T09:31:40.163Z,6.22
2023-11-14T09:34:09.943Z,8.32
2023-11-14T09:36:39.012Z,8.75
2023-11-14T09:39:19.128Z,7.83
2023-11-14T09:41:52.986Z,8.52
2023-11-14T09:44:21.389Z,8.02
2023-11-14T09:46:52.207Z,7.85
2023-11-14T09:49:20.785Z,7.28
2023-11-14T09:51:52.021Z,7.97
2023-11-14T09:54:22.742Z,7.93
2023-11-14T09:56:51.998Z,6.35
2023-11-14T09:59:21.385Z,6.68
2023-11-14T10:01:49.845Z,5.82
2023-11-14T10:04:18.111Z,5.93
2023-11-14T10:06:46.740Z,5.65
2023-11-14T10:09:16.389Z,6.20
2023-11-14T10:14:22.387Z,4.80
2023-11-14T10:17:00.635Z,4.97
2023-11-14T10:19:28.949Z,6.13
2023-11-14T10:22:05.779Z,6.88
2023-11-14T10:24:34.440Z,6.78
2023-11-14T10:27:03.097Z,8.07
2023-11-14T10:29:31.758Z,6.87
2023-11-14T10:31:59.928Z,6.70
2023-11-14T10:34:33.286Z,6.20
2023-11-14T10:37:05.114Z,7.40
2023-11-14T10:39:34.029Z,7.88
2023-11-14T10:42:11.739Z,7.90
2023-11-14T10:44:40.431Z,7.97
2023-11-14T10:47:09.246Z,6.97
2023-11-14T10:49:48.878Z,6.68
2023-11-14T10:52:19.293Z,7.35
2023-11-14T10:54:48.585Z,6.93
2023-11-14T10:57:25.626Z,5.95
2023-11-14T10:59:59.390Z,6.10
2023-11-14T11:02:35.179Z,5.93
2023-11-14T11:05:07.678Z,5.65
2023-11-14T11:07:38.594Z,5.00
2023-11-14T11:10:08.247Z,5.22
2023-11-14T11:12:40.906Z,5.45
2023-11-14T11:15:12.668Z,4.78
2023-11-14T11:17:47.151Z,4.60
2023-11-14T11:20:30.433Z,5.50
2023-11-14T11:23:13.636Z,5.20
2023-11-14T11:25:46.452Z,5.63
2023-11-14T11:28:24.036Z,5.68
2023-11-14T11:31:07.507Z,5.28
2023-11-14T11:33:37.967Z,4.70
2023-11-14T11:36:33.693Z,4.60
2023-11-14T11:39:08.976Z,4.55
2023-11-14T11:41:56.431Z,3.70
2023-11-14T11:44:37.927Z,3.58
2023-11-14T11:47:26.970Z,3.27
2023-11-14T11:49:56.437Z,3.60
2023-11-14T11:52:25.173Z,8.35
2023-11-14T11:55:16.906Z,4.90
2023-11-14T11:57:48.170Z,3.47
2023-11-14T12:00:19.306Z,2.47
2023-11-14T12:02:47.918Z,2.97
2023-11-14T12:05:17.740Z,2.80
2023-11-14T12:07:47.882Z,3.40
2023-11-14T12:10:18.797Z,3.13
2023-11-14T12:12:47.456Z,4.17
2023-11-14T12:15:21.818Z,2.88
2023-11-14T12:17:54.861Z,3.17
2023-11-14T12:20:25.775Z,3.28
2023-11-14T12:22:55.048Z,3.45
2023-11-14T12:25:24.070Z,3.00
2023-11-14T12:27:59.536Z,3.20
2023-11-14T12:30:29.585Z,4.00
2023-11-14T12:33:10.427Z,3.25
2023-11-14T12:35:47.360Z,4.50
2023-11-14T12:38:16.046Z,3.33
2023-11-14T12:40:44.309Z,3.95
2023-11-14T12:43:13.327Z,4.43
2023-11-14T12:45:48.674Z,3.65
2023-11-14T12:48:17.171Z,4.38
2023-11-14T12:50:45.332Z,3.53
2023-11-14T12:53:13.813Z,4.35
2023-11-14T12:55:42.020Z,4.18
2023-11-14T12:58:10.721Z,4.05
2023-11-14T13:00:39.032Z,4.47
2023-11-14T13:03:07.423Z,4.00
2023-11-14T13:05:35.601Z,5.72
2023-11-14T13:08:04.284Z,5.55
2023-11-14T13:10:33.600Z,5.22
2023-11-14T13:13:01.843Z,4.60
2023-11-14T13:15:30.775Z,4.87
2023-11-14T13:17:59.586Z,4.95
2023-11-14T13:20:27.655Z,4.93
2023-11-14T13:22:55.893Z,4.28
2023-11-14T13:25:24.650Z,4.50
2023-11-14T13:27:53.205Z,4.20
2023-11-14T13:30:24.122Z,4.13
2023-11-14T13:32:54.807Z,3.90
2023-11-14T13:35:24.264Z,4.45
2023-11-14T13:37:52.756Z,4.20
2023-11-14T13:40:20.922Z,4.60
2023-11-14T13:42:49.010Z,5.30
2023-11-14T13:45:18.055Z,5.28
2023-11-14T13:47:47.338Z,7.60
2023-11-14T13:50:17.191Z,4.65
2023-11-14T13:52:47.909Z,4.53
2023-11-14T13:55:19.474Z,4.90
2023-11-14T13:57:48.380Z,4.78
2023-11-14T14:00:19.145Z,4.30
2023-11-14T14:02:47.486Z,4.47
2023-11-14T14:05:15.674Z,4.27
2023-11-14T14:07:46.521Z,4.03
2023-11-14T14:10:16.246Z,4.95
2023-11-14T14:12:47.997Z,5.45
2023-11-14T14:15:17.785Z,4.75
2023-11-14T14:17:47.273Z,4.40
2023-11-14T14:20:17.883Z,5.32
2023-11-14T14:22:56.544Z,5.18
2023-11-14T14:25:25.021Z,4.93
2023-11-14T14:27:53.276Z,4.68
2023-11-14T14:30:22.386Z,4.27
2023-11-14T14:32:51.337Z,5.18
2023-11-14T14:35:20.207Z,4.90
2023-11-14T14:37:48.734Z,4.90
2023-11-14T14:40:19.069Z,5.25
2023-11-14T14:42:47.688Z,5.83
2023-11-14T14:45:16.392Z,5.20
2023-11-14T14:47:44.574Z,6.18
2023-11-14T14:50:12.898Z,6.13
2023-11-14T14:52:42.136Z,7.18
2023-11-14T14:55:11.478Z,6.57
2023-11-14T14:57:40.815Z,6.35
2023-11-14T15:00:19.518Z,6.20
2023-11-14T15:02:48.845Z,6.55
2023-11-14T15:05:23.842Z,7.05
2023-11-14T15:07:52.816Z,6.13
2023-11-14T15:10:20.963Z,6.05
2023-11-14T15:12:49.287Z,6.40
2023-11-14T15:15:17.422Z,5.95
2023-11-14T15:17:48.161Z,6.30
2023-11-14T15:20:18.402Z,5.80
2023-11-14T15:22:47.538Z,7.18
2023-11-14T15:25:16.712Z,6.05
2023-11-14T15:27:45.408Z,6.40
2023-11-14T15:30:14.450Z,6.15
2023-11-14T15:32:45.725Z,5.87
2023-11-14T15:35:16.863Z,6.63
2023-11-14T15:37:45.374Z,6.47
2023-11-14T15:40:14.666Z,6.40
2023-11-14T15:42:44.372Z,6.53
2023-11-14T15:45:13.073Z,7.33
2023-11-14T15:47:41.228Z,7.65
2023-11-14T15:50:11.882Z,7.82
2023-11-14T15:52:40.201Z,8.07
2023-11-14T15:55:09.876Z,7.80
2023-11-14T15:57:39.083Z,9.10
2023-11-14T16:00:11.413Z,10.35
2023-11-14T16:02:39.847Z,11.13
2023-11-14T16:05:11.654Z,12.35
2023-11-14T16:07:39.746Z,14.02
2023-11-14T16:10:08.418Z,15.50
2023-11-14T16:12:39.135Z,16.05
2023-11-14T16:15:08.343Z,19.65
2023-11-14T16:17:36.754Z,20.65
2023-11-14T16:20:06.661Z,18.83
2023-11-14T16:22:35.442Z,18.77
2023-11-14T16:25:04.370Z,19.92
2023-11-14T16:27:33.229Z,20.10
2023-11-14T16:30:02.011Z,18.60
2023-11-14T16:32:33.315Z,19.52
2023-11-14T16:35:05.003Z,19.93
2023-11-14T16:37:34.052Z,19.50
2023-11-14T16:40:02.719Z,20.80
2023-11-14T16:42:33.190Z,20.35
2023-11-14T16:45:01.456Z,22.70
2023-11-14T16:47:33.502Z,24.67
2023-11-14T16:50:04.037Z,24.65
2023-11-14T16:52:34.183Z,24.27
2023-11-14T16:55:06.124Z,24.20
2023-11-14T16:57:37.133Z,25.65
2023-11-14T17:00:08.922Z,24.20
2023-11-14T17:02:38.514Z,26.67
2023-11-14T17:05:08.055Z,26.58
2023-11-14T17:07:36.505Z,26.95
2023-11-14T17:10:08.461Z,25.90
2023-11-14T17:12:37.455Z,26.33
2023-11-14T17:15:08.605Z,27.48
2023-11-14T17:17:37.624Z,33.75
2023-11-14T17:20:07.083Z,46.58
2023-11-14T17:22:36.633Z,30.98
2023-11-14T17:25:06.370Z,32.00
2023-11-14T17:27:35.382Z,35.25
2023-11-14T17:30:04.193Z,34.08
2023-11-14T17:32:33.808Z,31.15
2023-11-14T17:35:02.605Z,41.30
2023-11-14T17:37:31.821Z,43.83
2023-11-14T17:40:00.436Z,36.67
2023-11-14T17:42:28.965Z,36.15
2023-11-14T17:44:57.173Z,33.47
2023-11-14T17:47:26.319Z,36.47
2023-11-14T17:49:58.448Z,41.87
2023-11-14T17:52:27.141Z,35.65
2023-11-14T17:54:55.807Z,44.58
2023-11-14T17:57:24.418Z,45.60
2023-11-14T17:59:52.943Z,40.90
2023-11-14T18:02:21.240Z,39.23
2023-11-14T18:04:50.181Z,40.97
2023-11-14T18:07:19.030Z,38.13
2023-11-14T18:09:47.197Z,38.55
2023-11-14T18:12:15.762Z,38.50
2023-11-14T18:14:44.432Z,36.97
2023-11-14T18:17:14.382Z,36.33
2023-11-14T18:19:43.846Z,37.10
2023-11-14T18:22:12.222Z,37.67
2023-11-14T18:24:41.808Z,35.92
2023-11-14T18:27:10.359Z,36.57
2023-11-14T18:29:39.120Z,35.33
2023-11-14T18:32:07.405Z,41.50
2023-11-14T18:34:38.705Z,41.67
2023-11-14T18:37:07.144Z,36.05
2023-11-14T18:39:36.320Z,39.73
2023-11-14T18:42:06.750Z,35.83
2023-11-14T18:44:35.065Z,38.83
2023-11-14T18:47:07.801Z,41.20
2023-11-14T18:49:36.564Z,37.22
2023-11-14T18:52:05.879Z,37.67
2023-11-14T18:54:35.524Z,36.42
2023-11-14T18:57:04.420Z,29.25
2023-11-14T18:59:32.719Z,30.55
2023-11-14T19:02:01.914Z,33.50
2023-11-14T19:04:30.481Z,33.53
2023-11-14T19:06:59.144Z,32.38
2023-11-14T19:09:29.134Z,32.42
2023-11-14T19:11:58.508Z,35.13
2023-11-14T19:14:27.160Z,33.25
2023-11-14T19:16:56.247Z,35.60
2023-11-14T19:19:27.270Z,33.17
2023-11-14T19:22:00.271Z,32.35
2023-11-14T19:24:34.108Z,32.28
2023-11-14T19:27:03.199Z,34.20
2023-11-14T19:29:31.798Z,35.40
2023-11-14T19:32:00.485Z,37.55
2023-11-14T19:34:29.413Z,36.40
2023-11-14T19:36:58.690Z,35.42
2023-11-14T19:39:26.916Z,36.75
2023-11-14T19:41:56.020Z,39.40
2023-11-14T19:44:25.215Z,41.70
2023-11-14T19:46:55.688Z,42.15
2023-11-14T19:49:30.575Z,42.00
2023-11-14T19:52:03.036Z,36.28
2023-11-14T19:54:31.319Z,35.00
2023-11-14T19:56:59.991Z,34.83
2023-11-14T19:59:28.674Z,45.78
2023-11-14T20:01:57.149Z,61.15
2023-11-14T20:04:26.709Z,51.58
2023-11-14T20:06:55.164Z,43.30
2023-11-14T20:09:23.588Z,42.63
2023-11-14T20:11:52.792Z,40.95
2023-11-14T20:14:21.875Z,38.28
2023-11-14T20:16:50.538Z,37.95
2023-11-14T20:19:19.704Z,32.27
2023-11-14T20:21:48.851Z,33.70
2023-11-14T20:24:17.615Z,34.15
2023-11-14T20:26:45.741Z,34.92
2023-11-14T20:29:17.160Z,31.38
2023-11-14T20:31:46.443Z,33.57
2023-11-14T20:34:15.234Z,36.67
2023-11-14T20:36:43.577Z,29.85
2023-11-14T20:39:16.515Z,22.60
2023-11-14T20:41:46.021Z,22.83
2023-11-14T20:44:14.704Z,22.67
2023-11-14T20:46:43.144Z,24.15
2023-11-14T20:49:11.502Z,27.10
2023-11-14T20:51:39.700Z,25.65
2023-11-14T20:54:08.312Z,26.30
2023-11-14T20:56:37.312Z,27.43
2023-11-14T20:59:07.863Z,30.77
2023-11-14T21:01:36.140Z,35.20
2023-11-14T21:04:04.647Z,36.95
2023-11-14T21:06:33.365Z,41.38
2023-11-14T21:09:05.856Z,43.70
2023-11-14T21:11:34.476Z,44.95
2023-11-14T21:14:04.365Z,47.55
2023-11-14T21:16:32.957Z,47.75
2023-11-14T21:19:02.078Z,43.65
2023-11-14T21:21:31.527Z,46.03
2023-11-14T21:24:00.070Z,46.00
2023-11-14T21:26:29.466Z,51.33
2023-11-14T21:28:58.221Z,53.10
2023-11-14T21:31:28.021Z,50.25
2023-11-14T21:33:58.001Z,53.97
2023-11-14T21:36:27.587Z,51.45
2023-11-14T21:38:56.727Z,53.70
2023-11-14T21:41:25.529Z,52.17
2023-11-14T21:43:55.621Z,51.28
2023-11-14T21:46:24.448Z,68.43
2023-11-14T21:48:53.188Z,51.15
2023-11-14T21:51:21.721Z,52.00
2023-11-14T21:53:51.006Z,68.30
2023-11-14T21:56:19.576Z,70.80
2023-11-14T21:58:52.544Z,54.20
2023-11-14T22:01:25.402Z,47.10
2023-11-14T22:03:53.644Z,42.05
2023-11-14T22:06:23.043Z,31.15
2023-11-14T22:08:51.429Z,27.75
2023-11-14T22:11:19.517Z,35.03
2023-11-14T22:13:48.355Z,39.17
2023-11-14T22:16:17.210Z,40.53
2023-11-14T22:18:45.485Z,18.70
2023-11-14T22:21:13.659Z,19.30
2023-11-14T22:23:42.517Z,26.40
2023-11-14T22:26:12.584Z,32.08
2023-11-14T22:28:41.824Z,33.83
2023-11-14T22:31:13.317Z,36.95
2023-11-14T22:33:41.628Z,42.65
2023-11-14T22:36:10.923Z,41.40
2023-11-14T22:38:39.801Z,43.45
2023-11-14T22:41:10.600Z,28.55
2023-11-14T22:43:38.671Z,24.80
2023-11-14T22:46:06.939Z,25.13
2023-11-14T22:48:36.327Z,25.53
2023-11-14T22:51:04.664Z,27.42
2023-11-14T22:53:33.805Z,18.50
2023-11-14T22:56:02.328Z,15.43
2023-11-14T22:58:31.660Z,15.00
2023-11-14T23:01:01.311Z,15.57
2023-11-14T23:03:34.212Z,14.95
2023-11-14T23:06:02.607Z,17.40
2023-11-14T23:08:30.804Z,23.58
2023-11-14T23:10:59.666Z,21.40
2023-11-14T23:13:28.405Z,21.63
2023-11-14T23:15:57.208Z,22.75
2023-11-14T23:18:26.045Z,22.17
2023-11-14T23:20:54.636Z,17.92
2023-11-14T23:23:23.974Z,24.67
2023-11-14T23:25:52.471Z,22.37
2023-11-14T23:28:21.549Z,25.05
2023-11-14T23:30:50.233Z,23.27
2023-11-14T23:33:18.640Z,20.05
2023-11-14T23:35:46.706Z,22.90
2023-11-14T23:38:14.870Z,22.53
2023-11-14T23:40:45.068Z,23.13
2023-11-14T23:43:13.648Z,24.10
2023-11-14T23:45:42.259Z,23.77
2023-11-14T23:48:10.910Z,14.40
2023-11-14T23:50:39.034Z,12.30
2023-11-14T23:53:07.815Z,13.90
2023-11-14T23:55:36.140Z,11.93
2023-11-14T23:58:04.526Z,10.20
